KPVD/PVD METAR and TAF weather

Enter ICAO airport designator
Station Type Date Time Source
KPVD METAR 2020/07/15 00:51 UTC NOAA

KPVD 150051Z 04008KT 10SM FEW019 SCT110 SCT250 20/18 A3005 RMK AO2 SLP174 T02000183 $


Station Type Date Time Source
KPVD Decoded METAR 2020/07/15 00:51 UTC NOAA

PROVIDENCE GREEN STATE AIRPORT , RI, United States (KPVD) 41-44N 071-26W 16M
Jul 14, 2020 - 08:51 PM EDT / 2020.07.15 0051 UTC
Wind: from the NE (040 degrees) at 9 MPH (8 KT):0
Visibility: 10 mile(s):0
Sky conditions: partly cloudy
Temperature: 68.0 F (20.0 C)
Dew Point: 64.9 F (18.3 C)
Relative Humidity: 89%
Pressure (altimeter): 30.05 in. Hg (1017 hPa)
ob: KPVD 150051Z 04008KT 10SM FEW019 SCT110 SCT250 20/18 A3005 RMK AO2 SLP174 T02000183
cycle: 1

Station Type Date Time Source
KPVD TAF 2020/07/14 22:48 UTC NOAA

TAF
AMD KPVD 142146Z 1422/1518 23004KT P6SM SCT025 BKN250
FM142210 34010G22KT 4SM TSRA BR BKN035CB OVC070
FM142300 01006KT P6SM BKN040
FM150200 02006KT P6SM BKN025

Example: see airport list